sensor_id;sensor_type;location;lat;lon;timestamp;P1;durP1;ratioP1;P2;durP2;ratioP2
69188;SDS011;56302;52.322;5.926;2023-03-23T00:01:05;12.35;;;4.68;;
69188;SDS011;56302;52.322;5.926;2023-03-23T00:03:31;10.83;;;4.97;;
69188;SDS011;56302;52.322;5.926;2023-03-23T00:05:58;12.20;;;4.30;;
69188;SDS011;56302;52.322;5.926;2023-03-23T00:08:29;11.30;;;4.90;;
69188;SDS011;56302;52.322;5.926;2023-03-23T00:10:56;9.53;;;5.13;;
69188;SDS011;56302;52.322;5.926;2023-03-23T00:13:24;10.90;;;5.03;;
69188;SDS011;56302;52.322;5.926;2023-03-23T00:15:51;8.90;;;4.68;;
69188;SDS011;56302;52.322;5.926;2023-03-23T00:18:17;8.63;;;4.10;;
69188;SDS011;56302;52.322;5.926;2023-03-23T00:20:51;12.18;;;4.60;;
69188;SDS011;56302;52.322;5.926;2023-03-23T00:23:18;7.85;;;3.60;;
69188;SDS011;56302;52.322;5.926;2023-03-23T00:25:46;8.38;;;3.75;;
69188;SDS011;56302;52.322;5.926;2023-03-23T00:28:13;9.82;;;3.60;;
69188;SDS011;56302;52.322;5.926;2023-03-23T00:30:40;11.00;;;4.10;;
69188;SDS011;56302;52.322;5.926;2023-03-23T00:33:07;8.90;;;3.80;;
69188;SDS011;56302;52.322;5.926;2023-03-23T00:35:33;10.82;;;4.43;;
69188;SDS011;56302;52.322;5.926;2023-03-23T00:38:00;10.43;;;4.18;;
69188;SDS011;56302;52.322;5.926;2023-03-23T00:40:26;9.18;;;4.40;;
69188;SDS011;56302;52.322;5.926;2023-03-23T00:42:52;8.50;;;4.03;;
69188;SDS011;56302;52.322;5.926;2023-03-23T00:45:19;11.80;;;3.88;;
69188;SDS011;56302;52.322;5.926;2023-03-23T00:47:44;8.37;;;4.03;;
69188;SDS011;56302;52.322;5.926;2023-03-23T00:50:11;9.82;;;4.32;;
69188;SDS011;56302;52.322;5.926;2023-03-23T00:52:38;12.77;;;5.55;;
69188;SDS011;56302;52.322;5.926;2023-03-23T00:55:04;7.07;;;3.70;;
69188;SDS011;56302;52.322;5.926;2023-03-23T00:57:31;8.00;;;3.53;;
69188;SDS011;56302;52.322;5.926;2023-03-23T00:59:56;8.10;;;3.70;;
69188;SDS011;56302;52.322;5.926;2023-03-23T01:02:22;9.63;;;4.13;;
69188;SDS011;56302;52.322;5.926;2023-03-23T01:04:49;6.97;;;4.00;;
69188;SDS011;56302;52.322;5.926;2023-03-23T01:07:17;9.55;;;3.60;;
69188;SDS011;56302;52.322;5.926;2023-03-23T01:09:48;10.60;;;4.10;;
69188;SDS011;56302;52.322;5.926;2023-03-23T01:12:14;8.77;;;3.20;;
69188;SDS011;56302;52.322;5.926;2023-03-23T01:14:40;7.65;;;3.58;;
69188;SDS011;56302;52.322;5.926;2023-03-23T01:17:06;9.27;;;2.77;;
69188;SDS011;56302;52.322;5.926;2023-03-23T01:19:32;11.25;;;3.08;;
69188;SDS011;56302;52.322;5.926;2023-03-23T01:21:57;5.63;;;2.80;;
69188;SDS011;56302;52.322;5.926;2023-03-23T01:24:23;9.32;;;3.30;;
69188;SDS011;56302;52.322;5.926;2023-03-23T01:26:50;7.80;;;2.90;;
69188;SDS011;56302;52.322;5.926;2023-03-23T01:29:16;7.72;;;2.90;;
69188;SDS011;56302;52.322;5.926;2023-03-23T01:31:41;8.00;;;3.13;;
69188;SDS011;56302;52.322;5.926;2023-03-23T01:34:07;7.33;;;3.20;;
69188;SDS011;56302;52.322;5.926;2023-03-23T01:36:35;6.63;;;3.20;;
69188;SDS011;56302;52.322;5.926;2023-03-23T01:39:02;7.85;;;3.03;;
69188;SDS011;56302;52.322;5.926;2023-03-23T01:41:29;7.18;;;3.20;;
69188;SDS011;56302;52.322;5.926;2023-03-23T01:46:33;6.85;;;3.10;;
69188;SDS011;56302;52.322;5.926;2023-03-23T01:49:17;6.22;;;2.83;;
69188;SDS011;56302;52.322;5.926;2023-03-23T01:51:49;5.55;;;2.85;;
69188;SDS011;56302;52.322;5.926;2023-03-23T01:54:18;6.47;;;2.28;;
69188;SDS011;56302;52.322;5.926;2023-03-23T01:56:47;5.18;;;2.63;;
69188;SDS011;56302;52.322;5.926;2023-03-23T01:59:17;7.07;;;2.88;;
69188;SDS011;56302;52.322;5.926;2023-03-23T02:01:44;5.85;;;2.33;;
69188;SDS011;56302;52.322;5.926;2023-03-23T02:04:14;4.85;;;2.40;;
69188;SDS011;56302;52.322;5.926;2023-03-23T02:06:42;7.72;;;2.97;;
69188;SDS011;56302;52.322;5.926;2023-03-23T02:09:09;8.75;;;2.85;;
69188;SDS011;56302;52.322;5.926;2023-03-23T02:11:36;5.35;;;2.70;;
69188;SDS011;56302;52.322;5.926;2023-03-23T02:14:02;6.43;;;2.73;;
69188;SDS011;56302;52.322;5.926;2023-03-23T02:16:33;5.78;;;2.70;;
69188;SDS011;56302;52.322;5.926;2023-03-23T02:19:19;5.68;;;2.70;;
69188;SDS011;56302;52.322;5.926;2023-03-23T02:30:24;5.28;;;2.80;;
69188;SDS011;56302;52.322;5.926;2023-03-23T02:42:04;5.72;;;2.90;;
69188;SDS011;56302;52.322;5.926;2023-03-23T02:44:32;7.03;;;2.60;;
69188;SDS011;56302;52.322;5.926;2023-03-23T02:47:01;7.25;;;3.00;;
69188;SDS011;56302;52.322;5.926;2023-03-23T02:49:31;6.53;;;2.67;;
69188;SDS011;56302;52.322;5.926;2023-03-23T02:52:00;6.20;;;2.95;;
69188;SDS011;56302;52.322;5.926;2023-03-23T02:54:29;6.65;;;2.67;;
69188;SDS011;56302;52.322;5.926;2023-03-23T02:56:55;6.03;;;2.97;;
69188;SDS011;56302;52.322;5.926;2023-03-23T02:59:22;8.70;;;3.30;;
69188;SDS011;56302;52.322;5.926;2023-03-23T03:01:55;7.20;;;3.63;;
69188;SDS011;56302;52.322;5.926;2023-03-23T03:04:27;7.20;;;3.45;;
69188;SDS011;56302;52.322;5.926;2023-03-23T03:09:48;9.80;;;3.40;;
69188;SDS011;56302;52.322;5.926;2023-03-23T03:12:28;6.78;;;3.63;;
69188;SDS011;56302;52.322;5.926;2023-03-23T03:15:27;6.15;;;2.90;;
69188;SDS011;56302;52.322;5.926;2023-03-23T03:18:04;7.28;;;3.50;;
69188;SDS011;56302;52.322;5.926;2023-03-23T03:20:37;7.15;;;3.63;;
69188;SDS011;56302;52.322;5.926;2023-03-23T03:23:08;5.93;;;3.40;;
69188;SDS011;56302;52.322;5.926;2023-03-23T03:25:37;6.20;;;3.20;;
69188;SDS011;56302;52.322;5.926;2023-03-23T03:28:05;7.50;;;3.35;;
69188;SDS011;56302;52.322;5.926;2023-03-23T03:30:31;7.00;;;3.23;;
69188;SDS011;56302;52.322;5.926;2023-03-23T03:33:01;7.95;;;3.95;;
69188;SDS011;56302;52.322;5.926;2023-03-23T03:35:28;7.45;;;3.38;;
69188;SDS011;56302;52.322;5.926;2023-03-23T03:37:55;6.45;;;3.42;;
69188;SDS011;56302;52.322;5.926;2023-03-23T03:40:23;7.45;;;3.55;;
69188;SDS011;56302;52.322;5.926;2023-03-23T03:42:49;8.00;;;3.83;;
69188;SDS011;56302;52.322;5.926;2023-03-23T03:45:16;8.82;;;3.90;;
69188;SDS011;56302;52.322;5.926;2023-03-23T03:47:43;6.25;;;3.67;;
69188;SDS011;56302;52.322;5.926;2023-03-23T03:50:10;11.02;;;3.13;;
69188;SDS011;56302;52.322;5.926;2023-03-23T03:52:35;6.45;;;3.55;;
69188;SDS011;56302;52.322;5.926;2023-03-23T03:55:03;8.32;;;3.55;;
69188;SDS011;56302;52.322;5.926;2023-03-23T03:57:30;8.43;;;3.72;;
69188;SDS011;56302;52.322;5.926;2023-03-23T03:59:55;7.65;;;3.50;;
69188;SDS011;56302;52.322;5.926;2023-03-23T04:02:21;9.45;;;3.38;;
69188;SDS011;56302;52.322;5.926;2023-03-23T04:04:47;7.77;;;3.27;;
69188;SDS011;56302;52.322;5.926;2023-03-23T04:07:12;8.55;;;3.38;;
69188;SDS011;56302;52.322;5.926;2023-03-23T04:09:39;6.53;;;3.13;;
69188;SDS011;56302;52.322;5.926;2023-03-23T04:12:05;8.35;;;2.90;;
69188;SDS011;56302;52.322;5.926;2023-03-23T04:14:31;6.95;;;2.75;;
69188;SDS011;56302;52.322;5.926;2023-03-23T04:16:57;7.25;;;3.20;;
69188;SDS011;56302;52.322;5.926;2023-03-23T04:19:24;8.10;;;3.13;;
69188;SDS011;56302;52.322;5.926;2023-03-23T04:21:50;8.18;;;2.78;;
69188;SDS011;56302;52.322;5.926;2023-03-23T04:24:16;8.02;;;3.65;;
69188;SDS011;56302;52.322;5.926;2023-03-23T04:26:41;10.00;;;2.97;;
69188;SDS011;56302;52.322;5.926;2023-03-23T04:29:07;7.72;;;3.00;;
69188;SDS011;56302;52.322;5.926;2023-03-23T04:31:33;7.43;;;3.27;;
69188;SDS011;56302;52.322;5.926;2023-03-23T04:34:00;7.97;;;3.08;;
69188;SDS011;56302;52.322;5.926;2023-03-23T04:36:26;7.63;;;2.80;;
69188;SDS011;56302;52.322;5.926;2023-03-23T04:38:54;7.55;;;3.13;;
69188;SDS011;56302;52.322;5.926;2023-03-23T04:41:20;6.45;;;2.92;;
69188;SDS011;56302;52.322;5.926;2023-03-23T04:43:47;9.90;;;2.90;;
69188;SDS011;56302;52.322;5.926;2023-03-23T04:46:17;8.23;;;2.58;;
69188;SDS011;56302;52.322;5.926;2023-03-23T04:48:44;6.20;;;2.78;;
69188;SDS011;56302;52.322;5.926;2023-03-23T04:51:10;8.20;;;2.58;;
69188;SDS011;56302;52.322;5.926;2023-03-23T04:53:37;7.57;;;2.92;;
69188;SDS011;56302;52.322;5.926;2023-03-23T04:56:03;7.78;;;2.65;;
69188;SDS011;56302;52.322;5.926;2023-03-23T04:58:29;7.32;;;2.75;;
69188;SDS011;56302;52.322;5.926;2023-03-23T05:00:58;8.25;;;2.92;;
69188;SDS011;56302;52.322;5.926;2023-03-23T05:03:24;5.70;;;2.55;;
69188;SDS011;56302;52.322;5.926;2023-03-23T05:05:51;6.87;;;2.17;;
69188;SDS011;56302;52.322;5.926;2023-03-23T05:08:22;11.00;;;2.50;;
69188;SDS011;56302;52.322;5.926;2023-03-23T05:13:18;7.60;;;2.22;;
69188;SDS011;56302;52.322;5.926;2023-03-23T05:15:44;8.07;;;2.50;;
69188;SDS011;56302;52.322;5.926;2023-03-23T05:18:11;8.00;;;2.33;;
69188;SDS011;56302;52.322;5.926;2023-03-23T05:20:36;8.48;;;2.33;;
69188;SDS011;56302;52.322;5.926;2023-03-23T05:23:02;7.07;;;2.23;;
69188;SDS011;56302;52.322;5.926;2023-03-23T05:25:29;8.95;;;2.42;;
69188;SDS011;56302;52.322;5.926;2023-03-23T05:27:55;8.77;;;2.17;;
69188;SDS011;56302;52.322;5.926;2023-03-23T05:30:21;10.95;;;2.28;;
69188;SDS011;56302;52.322;5.926;2023-03-23T05:32:49;11.38;;;2.00;;
69188;SDS011;56302;52.322;5.926;2023-03-23T05:35:18;9.32;;;2.17;;
69188;SDS011;56302;52.322;5.926;2023-03-23T05:37:45;7.88;;;1.70;;
69188;SDS011;56302;52.322;5.926;2023-03-23T05:40:12;5.57;;;2.10;;
69188;SDS011;56302;52.322;5.926;2023-03-23T05:42:38;8.53;;;1.97;;
69188;SDS011;56302;52.322;5.926;2023-03-23T05:45:06;8.65;;;2.00;;
69188;SDS011;56302;52.322;5.926;2023-03-23T05:47:33;12.30;;;2.40;;
69188;SDS011;56302;52.322;5.926;2023-03-23T05:49:59;10.23;;;2.55;;
69188;SDS011;56302;52.322;5.926;2023-03-23T05:52:25;10.67;;;2.20;;
69188;SDS011;56302;52.322;5.926;2023-03-23T05:54:52;6.93;;;1.98;;
69188;SDS011;56302;52.322;5.926;2023-03-23T05:57:18;8.05;;;2.00;;
69188;SDS011;56302;52.322;5.926;2023-03-23T05:59:46;14.15;;;3.08;;
69188;SDS011;56302;52.322;5.926;2023-03-23T06:02:12;10.18;;;1.98;;
69188;SDS011;56302;52.322;5.926;2023-03-23T06:04:39;8.17;;;1.57;;
69188;SDS011;56302;52.322;5.926;2023-03-23T06:07:06;12.05;;;1.70;;
69188;SDS011;56302;52.322;5.926;2023-03-23T06:09:32;10.15;;;1.70;;
69188;SDS011;56302;52.322;5.926;2023-03-23T06:11:57;6.73;;;1.90;;
69188;SDS011;56302;52.322;5.926;2023-03-23T06:14:23;6.70;;;1.73;;
69188;SDS011;56302;52.322;5.926;2023-03-23T06:16:48;6.77;;;1.50;;
69188;SDS011;56302;52.322;5.926;2023-03-23T06:19:15;7.47;;;1.63;;
69188;SDS011;56302;52.322;5.926;2023-03-23T06:21:41;6.50;;;1.58;;
69188;SDS011;56302;52.322;5.926;2023-03-23T06:24:07;9.13;;;2.20;;
69188;SDS011;56302;52.322;5.926;2023-03-23T06:26:34;8.68;;;2.25;;
69188;SDS011;56302;52.322;5.926;2023-03-23T06:29:02;7.85;;;1.65;;
69188;SDS011;56302;52.322;5.926;2023-03-23T06:31:35;14.90;;;1.83;;
69188;SDS011;56302;52.322;5.926;2023-03-23T06:34:13;9.40;;;1.98;;
69188;SDS011;56302;52.322;5.926;2023-03-23T06:36:39;5.80;;;1.88;;
69188;SDS011;56302;52.322;5.926;2023-03-23T06:39:05;8.27;;;1.60;;
69188;SDS011;56302;52.322;5.926;2023-03-23T06:41:31;9.60;;;2.28;;
69188;SDS011;56302;52.322;5.926;2023-03-23T06:43:57;9.10;;;2.33;;
69188;SDS011;56302;52.322;5.926;2023-03-23T06:46:23;10.50;;;2.17;;
69188;SDS011;56302;52.322;5.926;2023-03-23T06:48:49;10.60;;;2.00;;
69188;SDS011;56302;52.322;5.926;2023-03-23T06:51:15;8.80;;;2.17;;
69188;SDS011;56302;52.322;5.926;2023-03-23T06:53:45;12.25;;;2.55;;
69188;SDS011;56302;52.322;5.926;2023-03-23T06:56:10;10.85;;;2.60;;
69188;SDS011;56302;52.322;5.926;2023-03-23T06:58:37;11.57;;;2.45;;
69188;SDS011;56302;52.322;5.926;2023-03-23T07:01:03;10.57;;;2.30;;
69188;SDS011;56302;52.322;5.926;2023-03-23T07:03:29;7.28;;;1.95;;
69188;SDS011;56302;52.322;5.926;2023-03-23T07:05:56;12.45;;;2.40;;
69188;SDS011;56302;52.322;5.926;2023-03-23T07:08:22;12.07;;;2.78;;
69188;SDS011;56302;52.322;5.926;2023-03-23T07:10:50;7.53;;;2.13;;
69188;SDS011;56302;52.322;5.926;2023-03-23T07:13:17;8.25;;;1.83;;
69188;SDS011;56302;52.322;5.926;2023-03-23T07:15:43;10.50;;;1.70;;
69188;SDS011;56302;52.322;5.926;2023-03-23T07:18:09;7.63;;;1.88;;
69188;SDS011;56302;52.322;5.926;2023-03-23T07:20:34;6.40;;;1.50;;
69188;SDS011;56302;52.322;5.926;2023-03-23T07:23:01;9.15;;;1.77;;
69188;SDS011;56302;52.322;5.926;2023-03-23T07:25:27;6.35;;;1.70;;
69188;SDS011;56302;52.322;5.926;2023-03-23T07:27:53;6.60;;;1.70;;
69188;SDS011;56302;52.322;5.926;2023-03-23T07:30:18;8.20;;;2.20;;
69188;SDS011;56302;52.322;5.926;2023-03-23T07:32:44;6.23;;;1.67;;
69188;SDS011;56302;52.322;5.926;2023-03-23T07:35:09;10.10;;;1.95;;
69188;SDS011;56302;52.322;5.926;2023-03-23T07:37:35;8.97;;;1.90;;
69188;SDS011;56302;52.322;5.926;2023-03-23T07:40:01;11.57;;;2.25;;
69188;SDS011;56302;52.322;5.926;2023-03-23T07:42:39;12.03;;;2.53;;
69188;SDS011;56302;52.322;5.926;2023-03-23T07:45:09;15.15;;;2.47;;
69188;SDS011;56302;52.322;5.926;2023-03-23T07:47:36;9.10;;;2.28;;
69188;SDS011;56302;52.322;5.926;2023-03-23T07:50:02;11.82;;;2.30;;
69188;SDS011;56302;52.322;5.926;2023-03-23T07:52:28;7.50;;;2.33;;
69188;SDS011;56302;52.322;5.926;2023-03-23T07:54:55;10.00;;;2.50;;
69188;SDS011;56302;52.322;5.926;2023-03-23T07:57:21;11.02;;;2.65;;
69188;SDS011;56302;52.322;5.926;2023-03-23T07:59:47;8.32;;;2.63;;
69188;SDS011;56302;52.322;5.926;2023-03-23T08:02:13;11.03;;;2.47;;
69188;SDS011;56302;52.322;5.926;2023-03-23T08:04:38;10.30;;;3.47;;
69188;SDS011;56302;52.322;5.926;2023-03-23T08:07:04;10.30;;;3.28;;
69188;SDS011;56302;52.322;5.926;2023-03-23T08:09:30;8.88;;;2.70;;
69188;SDS011;56302;52.322;5.926;2023-03-23T08:11:56;11.40;;;2.70;;
69188;SDS011;56302;52.322;5.926;2023-03-23T08:14:22;10.25;;;2.33;;
69188;SDS011;56302;52.322;5.926;2023-03-23T08:16:52;10.95;;;2.83;;
69188;SDS011;56302;52.322;5.926;2023-03-23T08:19:20;12.00;;;3.53;;
69188;SDS011;56302;52.322;5.926;2023-03-23T08:21:45;12.07;;;2.50;;
69188;SDS011;56302;52.322;5.926;2023-03-23T08:24:11;8.80;;;2.37;;
69188;SDS011;56302;52.322;5.926;2023-03-23T08:26:36;11.00;;;2.33;;
69188;SDS011;56302;52.322;5.926;2023-03-23T08:29:02;8.37;;;2.77;;
69188;SDS011;56302;52.322;5.926;2023-03-23T08:31:30;9.35;;;2.90;;
69188;SDS011;56302;52.322;5.926;2023-03-23T08:33:55;11.18;;;2.40;;
69188;SDS011;56302;52.322;5.926;2023-03-23T08:36:22;14.23;;;2.92;;
69188;SDS011;56302;52.322;5.926;2023-03-23T08:38:48;9.27;;;2.55;;
69188;SDS011;56302;52.322;5.926;2023-03-23T08:41:16;8.73;;;2.00;;
69188;SDS011;56302;52.322;5.926;2023-03-23T08:43:41;9.52;;;1.90;;
69188;SDS011;56302;52.322;5.926;2023-03-23T08:46:08;10.68;;;2.28;;
69188;SDS011;56302;52.322;5.926;2023-03-23T08:48:35;9.82;;;1.80;;
69188;SDS011;56302;52.322;5.926;2023-03-23T08:51:02;11.38;;;2.28;;
69188;SDS011;56302;52.322;5.926;2023-03-23T08:53:28;11.82;;;1.90;;
69188;SDS011;56302;52.322;5.926;2023-03-23T08:56:02;7.78;;;2.00;;
69188;SDS011;56302;52.322;5.926;2023-03-23T08:58:29;9.10;;;2.30;;
69188;SDS011;56302;52.322;5.926;2023-03-23T09:00:55;8.32;;;2.30;;
69188;SDS011;56302;52.322;5.926;2023-03-23T09:03:20;8.27;;;2.17;;
69188;SDS011;56302;52.322;5.926;2023-03-23T09:05:46;8.70;;;1.90;;
69188;SDS011;56302;52.322;5.926;2023-03-23T09:08:11;10.07;;;2.67;;
69188;SDS011;56302;52.322;5.926;2023-03-23T09:10:38;8.82;;;2.70;;
69188;SDS011;56302;52.322;5.926;2023-03-23T09:13:04;7.45;;;1.67;;
69188;SDS011;56302;52.322;5.926;2023-03-23T09:15:29;11.80;;;2.53;;
69188;SDS011;56302;52.322;5.926;2023-03-23T09:17:56;11.57;;;2.30;;
69188;SDS011;56302;52.322;5.926;2023-03-23T09:20:23;8.18;;;2.63;;
69188;SDS011;56302;52.322;5.926;2023-03-23T09:22:51;10.90;;;2.20;;
69188;SDS011;56302;52.322;5.926;2023-03-23T09:25:19;11.48;;;2.33;;
69188;SDS011;56302;52.322;5.926;2023-03-23T09:27:56;8.50;;;2.17;;
69188;SDS011;56302;52.322;5.926;2023-03-23T09:30:24;7.40;;;2.13;;
69188;SDS011;56302;52.322;5.926;2023-03-23T09:32:52;9.50;;;2.55;;
69188;SDS011;56302;52.322;5.926;2023-03-23T09:35:18;8.73;;;2.10;;
69188;SDS011;56302;52.322;5.926;2023-03-23T09:37:46;8.50;;;2.53;;
69188;SDS011;56302;52.322;5.926;2023-03-23T09:40:14;9.20;;;2.38;;
69188;SDS011;56302;52.322;5.926;2023-03-23T09:54:14;9.90;;;2.55;;
69188;SDS011;56302;52.322;5.926;2023-03-23T09:56:49;10.32;;;2.85;;
69188;SDS011;56302;52.322;5.926;2023-03-23T09:59:37;8.82;;;2.22;;
69188;SDS011;56302;52.322;5.926;2023-03-23T10:02:27;8.05;;;2.05;;
69188;SDS011;56302;52.322;5.926;2023-03-23T10:16:25;9.30;;;2.08;;
69188;SDS011;56302;52.322;5.926;2023-03-23T10:19:16;10.68;;;2.33;;
69188;SDS011;56302;52.322;5.926;2023-03-23T10:21:50;14.55;;;1.95;;
69188;SDS011;56302;52.322;5.926;2023-03-23T10:24:19;9.85;;;2.03;;
69188;SDS011;56302;52.322;5.926;2023-03-23T10:29:43;12.02;;;2.15;;
69188;SDS011;56302;52.322;5.926;2023-03-23T10:32:35;8.68;;;2.03;;
69188;SDS011;56302;52.322;5.926;2023-03-23T10:35:13;10.85;;;2.38;;
69188;SDS011;56302;52.322;5.926;2023-03-23T10:37:46;10.32;;;2.15;;
69188;SDS011;56302;52.322;5.926;2023-03-23T10:40:16;7.90;;;1.83;;
69188;SDS011;56302;52.322;5.926;2023-03-23T10:42:48;9.00;;;1.55;;
69188;SDS011;56302;52.322;5.926;2023-03-23T10:48:48;9.73;;;1.67;;
69188;SDS011;56302;52.322;5.926;2023-03-23T10:50:45;11.20;;;1.80;;
69188;SDS011;56302;52.322;5.926;2023-03-23T10:53:21;11.00;;;2.17;;
69188;SDS011;56302;52.322;5.926;2023-03-23T10:55:53;13.50;;;2.17;;
69188;SDS011;56302;52.322;5.926;2023-03-23T10:58:22;13.55;;;1.80;;
69188;SDS011;56302;52.322;5.926;2023-03-23T11:00:50;8.73;;;2.10;;
69188;SDS011;56302;52.322;5.926;2023-03-23T11:08:13;13.07;;;2.13;;
69188;SDS011;56302;52.322;5.926;2023-03-23T11:10:53;14.85;;;2.17;;
69188;SDS011;56302;52.322;5.926;2023-03-23T11:13:21;13.73;;;1.80;;
69188;SDS011;56302;52.322;5.926;2023-03-23T11:15:52;13.32;;;2.10;;
69188;SDS011;56302;52.322;5.926;2023-03-23T11:18:34;10.90;;;1.48;;
69188;SDS011;56302;52.322;5.926;2023-03-23T11:21:01;9.77;;;1.33;;
69188;SDS011;56302;52.322;5.926;2023-03-23T11:23:33;8.95;;;2.03;;
69188;SDS011;56302;52.322;5.926;2023-03-23T11:29:03;11.90;;;2.00;;
69188;SDS011;56302;52.322;5.926;2023-03-23T11:31:36;10.68;;;1.90;;
69188;SDS011;56302;52.322;5.926;2023-03-23T11:34:08;10.53;;;1.57;;
69188;SDS011;56302;52.322;5.926;2023-03-23T11:36:41;9.80;;;1.70;;
69188;SDS011;56302;52.322;5.926;2023-03-23T11:39:29;11.98;;;1.95;;
69188;SDS011;56302;52.322;5.926;2023-03-23T11:41:57;10.85;;;1.58;;
69188;SDS011;56302;52.322;5.926;2023-03-23T11:44:40;8.25;;;1.83;;
69188;SDS011;56302;52.322;5.926;2023-03-23T11:47:15;10.77;;;1.40;;
69188;SDS011;56302;52.322;5.926;2023-03-23T11:49:52;9.48;;;1.40;;
69188;SDS011;56302;52.322;5.926;2023-03-23T11:52:32;9.23;;;1.75;;
69188;SDS011;56302;52.322;5.926;2023-03-23T11:55:10;10.60;;;1.60;;
69188;SDS011;56302;52.322;5.926;2023-03-23T11:57:52;10.95;;;2.10;;
69188;SDS011;56302;52.322;5.926;2023-03-23T12:00:20;12.40;;;1.90;;
69188;SDS011;56302;52.322;5.926;2023-03-23T12:05:32;8.70;;;1.80;;
69188;SDS011;56302;52.322;5.926;2023-03-23T12:08:16;9.82;;;1.70;;
69188;SDS011;56302;52.322;5.926;2023-03-23T12:19:42;11.13;;;1.83;;
69188;SDS011;56302;52.322;5.926;2023-03-23T12:30:20;10.75;;;1.73;;
69188;SDS011;56302;52.322;5.926;2023-03-23T12:32:58;10.00;;;1.63;;
69188;SDS011;56302;52.322;5.926;2023-03-23T12:35:39;13.00;;;1.83;;
69188;SDS011;56302;52.322;5.926;2023-03-23T12:43:52;6.97;;;1.30;;
69188;SDS011;56302;52.322;5.926;2023-03-23T12:46:41;8.55;;;1.60;;
69188;SDS011;56302;52.322;5.926;2023-03-23T12:49:36;7.97;;;1.38;;
69188;SDS011;56302;52.322;5.926;2023-03-23T12:52:15;9.25;;;1.55;;
69188;SDS011;56302;52.322;5.926;2023-03-23T12:54:49;9.87;;;1.67;;
69188;SDS011;56302;52.322;5.926;2023-03-23T12:57:43;6.05;;;1.27;;
69188;SDS011;56302;52.322;5.926;2023-03-23T13:00:46;7.60;;;1.75;;
69188;SDS011;56302;52.322;5.926;2023-03-23T13:03:33;5.90;;;1.40;;
69188;SDS011;56302;52.322;5.926;2023-03-23T13:06:15;6.95;;;1.35;;
69188;SDS011;56302;52.322;5.926;2023-03-23T13:09:02;6.40;;;1.30;;
69188;SDS011;56302;52.322;5.926;2023-03-23T13:11:37;8.18;;;1.42;;
69188;SDS011;56302;52.322;5.926;2023-03-23T13:14:13;11.05;;;1.70;;
69188;SDS011;56302;52.322;5.926;2023-03-23T13:22:37;9.67;;;1.40;;
69188;SDS011;56302;52.322;5.926;2023-03-23T13:25:13;6.07;;;1.33;;
69188;SDS011;56302;52.322;5.926;2023-03-23T13:27:42;14.40;;;2.03;;
69188;SDS011;56302;52.322;5.926;2023-03-23T13:30:21;6.63;;;1.17;;
69188;SDS011;56302;52.322;5.926;2023-03-23T13:32:48;10.88;;;1.98;;
69188;SDS011;56302;52.322;5.926;2023-03-23T13:35:14;8.33;;;1.30;;
69188;SDS011;56302;52.322;5.926;2023-03-23T13:37:47;9.40;;;1.77;;
69188;SDS011;56302;52.322;5.926;2023-03-23T13:42:53;9.20;;;1.65;;
69188;SDS011;56302;52.322;5.926;2023-03-23T13:48:03;9.15;;;1.50;;
69188;SDS011;56302;52.322;5.926;2023-03-23T13:50:44;9.85;;;1.70;;
69188;SDS011;56302;52.322;5.926;2023-03-23T13:53:24;10.48;;;2.08;;
69188;SDS011;56302;52.322;5.926;2023-03-23T14:01:53;5.90;;;1.55;;
69188;SDS011;56302;52.322;5.926;2023-03-23T14:04:20;8.85;;;1.70;;
69188;SDS011;56302;52.322;5.926;2023-03-23T14:06:48;7.97;;;1.20;;
69188;SDS011;56302;52.322;5.926;2023-03-23T14:09:16;6.50;;;1.60;;
69188;SDS011;56302;52.322;5.926;2023-03-23T14:12:28;8.67;;;1.53;;
69188;SDS011;56302;52.322;5.926;2023-03-23T14:14:58;8.65;;;1.98;;
69188;SDS011;56302;52.322;5.926;2023-03-23T14:17:30;7.43;;;1.60;;
69188;SDS011;56302;52.322;5.926;2023-03-23T14:20:05;8.68;;;1.60;;
69188;SDS011;56302;52.322;5.926;2023-03-23T14:22:35;9.50;;;1.65;;
69188;SDS011;56302;52.322;5.926;2023-03-23T14:25:10;10.60;;;1.57;;
69188;SDS011;56302;52.322;5.926;2023-03-23T14:27:38;9.02;;;1.60;;
69188;SDS011;56302;52.322;5.926;2023-03-23T14:30:08;8.48;;;1.67;;
69188;SDS011;56302;52.322;5.926;2023-03-23T14:32:38;7.68;;;1.42;;
69188;SDS011;56302;52.322;5.926;2023-03-23T14:35:06;8.83;;;1.60;;
69188;SDS011;56302;52.322;5.926;2023-03-23T14:37:39;9.65;;;1.60;;
69188;SDS011;56302;52.322;5.926;2023-03-23T14:40:05;7.60;;;2.10;;
69188;SDS011;56302;52.322;5.926;2023-03-23T14:42:36;8.98;;;1.70;;
69188;SDS011;56302;52.322;5.926;2023-03-23T14:45:03;9.23;;;1.20;;
69188;SDS011;56302;52.322;5.926;2023-03-23T14:47:34;7.53;;;1.33;;
69188;SDS011;56302;52.322;5.926;2023-03-23T14:50:04;5.13;;;1.08;;
69188;SDS011;56302;52.322;5.926;2023-03-23T14:52:35;6.63;;;1.48;;
69188;SDS011;56302;52.322;5.926;2023-03-23T14:55:10;6.90;;;1.27;;
69188;SDS011;56302;52.322;5.926;2023-03-23T14:57:42;4.70;;;1.20;;
69188;SDS011;56302;52.322;5.926;2023-03-23T15:02:47;7.43;;;1.30;;
69188;SDS011;56302;52.322;5.926;2023-03-23T15:05:18;7.80;;;1.67;;
69188;SDS011;56302;52.322;5.926;2023-03-23T15:07:58;8.23;;;1.50;;
69188;SDS011;56302;52.322;5.926;2023-03-23T15:10:28;6.32;;;1.35;;
69188;SDS011;56302;52.322;5.926;2023-03-23T15:12:54;6.45;;;1.15;;
69188;SDS011;56302;52.322;5.926;2023-03-23T15:15:32;6.30;;;1.80;;
69188;SDS011;56302;52.322;5.926;2023-03-23T15:18:00;6.68;;;1.60;;
69188;SDS011;56302;52.322;5.926;2023-03-23T15:20:31;6.03;;;1.33;;
69188;SDS011;56302;52.322;5.926;2023-03-23T15:23:16;8.07;;;1.73;;
69188;SDS011;56302;52.322;5.926;2023-03-23T15:25:50;6.72;;;1.70;;
69188;SDS011;56302;52.322;5.926;2023-03-23T15:28:18;7.95;;;1.60;;
69188;SDS011;56302;52.322;5.926;2023-03-23T15:30:47;9.05;;;1.90;;
69188;SDS011;56302;52.322;5.926;2023-03-23T15:33:16;7.80;;;1.40;;
69188;SDS011;56302;52.322;5.926;2023-03-23T15:35:49;7.07;;;1.92;;
69188;SDS011;56302;52.322;5.926;2023-03-23T15:40:54;6.82;;;1.60;;
69188;SDS011;56302;52.322;5.926;2023-03-23T15:43:23;8.18;;;1.67;;
69188;SDS011;56302;52.322;5.926;2023-03-23T15:48:25;7.68;;;1.50;;
69188;SDS011;56302;52.322;5.926;2023-03-23T15:50:51;10.07;;;2.03;;
69188;SDS011;56302;52.322;5.926;2023-03-23T15:53:31;8.38;;;2.25;;
69188;SDS011;56302;52.322;5.926;2023-03-23T15:55:58;9.97;;;1.47;;
69188;SDS011;56302;52.322;5.926;2023-03-23T15:58:25;7.13;;;1.50;;
69188;SDS011;56302;52.322;5.926;2023-03-23T16:00:51;9.40;;;1.75;;
69188;SDS011;56302;52.322;5.926;2023-03-23T16:03:24;8.13;;;1.50;;
69188;SDS011;56302;52.322;5.926;2023-03-23T16:05:53;8.25;;;1.58;;
69188;SDS011;56302;52.322;5.926;2023-03-23T16:08:19;7.38;;;1.83;;
69188;SDS011;56302;52.322;5.926;2023-03-23T16:10:45;10.48;;;1.73;;
69188;SDS011;56302;52.322;5.926;2023-03-23T16:13:10;7.47;;;1.67;;
69188;SDS011;56302;52.322;5.926;2023-03-23T16:15:36;6.83;;;1.70;;
69188;SDS011;56302;52.322;5.926;2023-03-23T16:18:01;7.13;;;2.13;;
69188;SDS011;56302;52.322;5.926;2023-03-23T16:20:27;7.15;;;2.08;;
69188;SDS011;56302;52.322;5.926;2023-03-23T16:22:54;10.05;;;2.13;;
69188;SDS011;56302;52.322;5.926;2023-03-23T16:25:20;10.73;;;2.58;;
69188;SDS011;56302;52.322;5.926;2023-03-23T16:27:46;7.85;;;1.95;;
69188;SDS011;56302;52.322;5.926;2023-03-23T16:32:43;11.52;;;2.42;;
69188;SDS011;56302;52.322;5.926;2023-03-23T16:35:10;5.60;;;1.98;;
69188;SDS011;56302;52.322;5.926;2023-03-23T16:37:36;8.95;;;1.60;;
69188;SDS011;56302;52.322;5.926;2023-03-23T16:40:03;10.43;;;2.35;;
69188;SDS011;56302;52.322;5.926;2023-03-23T16:42:30;8.95;;;1.85;;
69188;SDS011;56302;52.322;5.926;2023-03-23T16:44:55;10.10;;;2.30;;
69188;SDS011;56302;52.322;5.926;2023-03-23T16:47:21;10.20;;;2.63;;
69188;SDS011;56302;52.322;5.926;2023-03-23T16:49:50;10.45;;;2.00;;
69188;SDS011;56302;52.322;5.926;2023-03-23T16:52:16;6.90;;;1.83;;